Austell, GA (30168)

2:45 PM EDT on August 30, 2015 (GMT -0400)
Werner Ent. Atlanta | | Change Station
CLOSE
Current Station
Personal Weather Station
Location: Lithia Springs, GA
Elevation: 912 ft
Nearby Weather Stations

Elev 912 ft 33.77 °N, 84.62 °W | Updated 14 minutes ago

Overcast
Overcast
72.4 °F
Feels Like 74 °F
N
10.0
Wind Variable Wind from ESE
Gusts 21.0 mph

Today
High -- | Low -- °F
--% Chance of Precip.
Yesterday
High -- | Low -- °F
Precip. -- in
7:10 AM 8:06 PM
Full, 98% visible
Pressure 30.12 in
Visibility 10.0 miles
Clouds Mostly Cloudy 1700 ft
Overcast 2400 ft
Heat Index 74 °F
Dew Point 64 °F
Humidity 74%
Rainfall 1.15 in
Snow Depth Not available.
UV 7.2 out of 12
Pollen 6.60 out of 12
Air Quality Not available.
Flu Activity Not available.
METAR KFTY 301753Z 06011KT 10SM BKN017 OVC024 23/18 A3013 RMK AO2 RAE17 SLP197 P0000 60082 T02280178 10228 20194 56012
Pressure 30.12 in
Visibility 10.0 miles
Clouds Mostly Cloudy 1700 ft
Overcast 2400 ft
Heat Index 74 °F
Dew Point 64 °F
Humidity 74%
Rainfall 1.15 in
Snow Depth Not available.
UV 7.2 out of 12
Pollen 6.60 out of 12
Air Quality Not available.
Flu Activity Not available.
METAR KFTY 301753Z 06011KT 10SM BKN017 OVC024 23/18 A3013 RMK AO2 RAE17 SLP197 P0000 60082 T02280178 10228 20194 56012

10-Day Weather Forecast

×

Almanac

Astronomy

Aug. 30, 2015 Rise Set
Actual Time
Civil Twilight
Nautical Twilight
Astronomical Twilight
Moon
Length of Visible Light
Length of Day
Tomorrow will be .
, % of the Moon is Illuminated

Today's Extremes

State Highs State Lows

Community

WunderPhotos

Upload Photos

1,851,031 photos uploaded!

WunderBlogs® & News

Nearby

Air Quality

  Air Quality AQ Index Pollutant
Not available.

Snow Depth

Station Depth Elevation

Earthquake Activity

City Distance Mag. Time & Date
Minimum magnitude displayed is 2.5.

Coastal Water Temperatures

Place Temperature

Stations

Nearby Weather Stations

Station Location Temp. Windchill Dew Point Humidity Wind Precip. Elev Updated Type